sensor_id;sensor_type;location;lat;lon;timestamp;P1;durP1;ratioP1;P2;durP2;ratioP2
80131;SDS011;69442;51.442;10.564;2023-07-30T00:00:00;2.47;;;1.50;;
80131;SDS011;69442;51.442;10.564;2023-07-30T00:02:27;2.47;;;1.70;;
80131;SDS011;69442;51.442;10.564;2023-07-30T00:04:52;2.13;;;1.40;;
80131;SDS011;69442;51.442;10.564;2023-07-30T00:07:18;2.42;;;1.67;;
80131;SDS011;69442;51.442;10.564;2023-07-30T00:09:43;2.38;;;1.23;;
80131;SDS011;69442;51.442;10.564;2023-07-30T00:12:08;2.33;;;1.65;;
80131;SDS011;69442;51.442;10.564;2023-07-30T00:14:35;2.47;;;1.40;;
80131;SDS011;69442;51.442;10.564;2023-07-30T00:17:00;1.90;;;1.23;;
80131;SDS011;69442;51.442;10.564;2023-07-30T00:19:26;1.58;;;1.20;;
80131;SDS011;69442;51.442;10.564;2023-07-30T00:21:51;3.38;;;1.50;;
80131;SDS011;69442;51.442;10.564;2023-07-30T00:24:17;3.15;;;1.60;;
80131;SDS011;69442;51.442;10.564;2023-07-30T00:26:42;3.17;;;1.42;;
80131;SDS011;69442;51.442;10.564;2023-07-30T00:29:07;2.83;;;1.77;;
80131;SDS011;69442;51.442;10.564;2023-07-30T00:31:33;2.70;;;1.30;;
80131;SDS011;69442;51.442;10.564;2023-07-30T00:33:58;3.08;;;1.50;;
80131;SDS011;69442;51.442;10.564;2023-07-30T00:36:24;2.63;;;1.60;;
80131;SDS011;69442;51.442;10.564;2023-07-30T00:38:49;3.40;;;1.70;;
80131;SDS011;69442;51.442;10.564;2023-07-30T00:41:14;3.20;;;1.77;;
80131;SDS011;69442;51.442;10.564;2023-07-30T00:43:40;2.13;;;1.50;;
80131;SDS011;69442;51.442;10.564;2023-07-30T00:46:05;2.78;;;1.60;;
80131;SDS011;69442;51.442;10.564;2023-07-30T00:48:31;2.58;;;1.80;;
80131;SDS011;69442;51.442;10.564;2023-07-30T00:50:56;1.77;;;1.45;;
80131;SDS011;69442;51.442;10.564;2023-07-30T00:53:23;2.22;;;1.60;;
80131;SDS011;69442;51.442;10.564;2023-07-30T00:55:51;1.33;;;1.10;;
80131;SDS011;69442;51.442;10.564;2023-07-30T00:58:16;2.70;;;1.70;;
80131;SDS011;69442;51.442;10.564;2023-07-30T01:00:43;2.40;;;1.60;;
80131;SDS011;69442;51.442;10.564;2023-07-30T01:03:09;2.38;;;1.52;;
80131;SDS011;69442;51.442;10.564;2023-07-30T01:05:35;1.88;;;1.30;;
80131;SDS011;69442;51.442;10.564;2023-07-30T01:08:01;3.03;;;1.60;;
80131;SDS011;69442;51.442;10.564;2023-07-30T01:10:26;1.50;;;1.13;;
80131;SDS011;69442;51.442;10.564;2023-07-30T01:12:53;3.03;;;1.50;;
80131;SDS011;69442;51.442;10.564;2023-07-30T01:15:18;2.55;;;1.83;;
80131;SDS011;69442;51.442;10.564;2023-07-30T01:17:44;1.75;;;1.50;;
80131;SDS011;69442;51.442;10.564;2023-07-30T01:20:10;2.65;;;1.77;;
80131;SDS011;69442;51.442;10.564;2023-07-30T01:22:35;3.17;;;1.60;;
80131;SDS011;69442;51.442;10.564;2023-07-30T01:25:01;4.60;;;2.05;;
80131;SDS011;69442;51.442;10.564;2023-07-30T01:27:30;2.88;;;1.55;;
80131;SDS011;69442;51.442;10.564;2023-07-30T01:30:04;2.75;;;1.55;;
80131;SDS011;69442;51.442;10.564;2023-07-30T01:32:36;4.15;;;1.63;;
80131;SDS011;69442;51.442;10.564;2023-07-30T01:35:02;2.53;;;1.67;;
80131;SDS011;69442;51.442;10.564;2023-07-30T01:37:30;2.50;;;1.60;;
80131;SDS011;69442;51.442;10.564;2023-07-30T01:39:56;2.55;;;1.58;;
80131;SDS011;69442;51.442;10.564;2023-07-30T01:42:27;3.00;;;1.88;;
80131;SDS011;69442;51.442;10.564;2023-07-30T01:44:53;4.00;;;1.73;;
80131;SDS011;69442;51.442;10.564;2023-07-30T01:47:19;2.15;;;1.42;;
80131;SDS011;69442;51.442;10.564;2023-07-30T01:49:44;2.92;;;1.45;;
80131;SDS011;69442;51.442;10.564;2023-07-30T01:52:09;2.53;;;1.60;;
80131;SDS011;69442;51.442;10.564;2023-07-30T01:54:35;4.50;;;1.60;;
80131;SDS011;69442;51.442;10.564;2023-07-30T01:57:00;2.03;;;1.40;;
80131;SDS011;69442;51.442;10.564;2023-07-30T01:59:26;2.13;;;1.67;;
80131;SDS011;69442;51.442;10.564;2023-07-30T02:01:51;2.25;;;1.50;;
80131;SDS011;69442;51.442;10.564;2023-07-30T02:04:17;5.53;;;1.70;;
80131;SDS011;69442;51.442;10.564;2023-07-30T02:06:43;1.90;;;1.50;;
80131;SDS011;69442;51.442;10.564;2023-07-30T02:09:08;2.28;;;1.58;;
80131;SDS011;69442;51.442;10.564;2023-07-30T02:11:33;2.08;;;1.48;;
80131;SDS011;69442;51.442;10.564;2023-07-30T02:13:59;2.78;;;1.48;;
80131;SDS011;69442;51.442;10.564;2023-07-30T02:16:24;2.42;;;1.48;;
80131;SDS011;69442;51.442;10.564;2023-07-30T02:18:49;2.30;;;1.40;;
80131;SDS011;69442;51.442;10.564;2023-07-30T02:21:15;2.20;;;1.30;;
80131;SDS011;69442;51.442;10.564;2023-07-30T02:23:40;2.17;;;1.50;;
80131;SDS011;69442;51.442;10.564;2023-07-30T02:26:05;2.40;;;1.58;;
80131;SDS011;69442;51.442;10.564;2023-07-30T02:28:31;4.30;;;1.42;;
80131;SDS011;69442;51.442;10.564;2023-07-30T02:30:56;2.17;;;1.52;;
80131;SDS011;69442;51.442;10.564;2023-07-30T02:33:21;1.77;;;1.42;;
80131;SDS011;69442;51.442;10.564;2023-07-30T02:35:47;2.25;;;1.30;;
80131;SDS011;69442;51.442;10.564;2023-07-30T02:38:12;2.08;;;1.58;;
80131;SDS011;69442;51.442;10.564;2023-07-30T02:40:38;2.13;;;1.58;;
80131;SDS011;69442;51.442;10.564;2023-07-30T02:43:03;2.03;;;1.38;;
80131;SDS011;69442;51.442;10.564;2023-07-30T02:45:29;2.08;;;1.40;;
80131;SDS011;69442;51.442;10.564;2023-07-30T02:47:54;2.33;;;1.27;;
80131;SDS011;69442;51.442;10.564;2023-07-30T02:50:20;1.77;;;1.10;;
80131;SDS011;69442;51.442;10.564;2023-07-30T02:52:45;3.72;;;1.50;;
80131;SDS011;69442;51.442;10.564;2023-07-30T02:55:11;2.05;;;1.42;;
80131;SDS011;69442;51.442;10.564;2023-07-30T02:57:36;4.00;;;1.55;;
80131;SDS011;69442;51.442;10.564;2023-07-30T03:00:02;3.58;;;1.50;;
80131;SDS011;69442;51.442;10.564;2023-07-30T03:02:29;3.13;;;1.85;;
80131;SDS011;69442;51.442;10.564;2023-07-30T03:04:54;3.47;;;1.58;;
80131;SDS011;69442;51.442;10.564;2023-07-30T03:07:20;1.85;;;1.27;;
80131;SDS011;69442;51.442;10.564;2023-07-30T03:09:45;2.75;;;1.80;;
80131;SDS011;69442;51.442;10.564;2023-07-30T03:12:11;2.92;;;1.52;;
80131;SDS011;69442;51.442;10.564;2023-07-30T03:14:36;2.95;;;1.52;;
80131;SDS011;69442;51.442;10.564;2023-07-30T03:17:02;2.42;;;1.35;;
80131;SDS011;69442;51.442;10.564;2023-07-30T03:19:27;2.25;;;1.33;;
80131;SDS011;69442;51.442;10.564;2023-07-30T03:21:52;1.92;;;1.33;;
80131;SDS011;69442;51.442;10.564;2023-07-30T03:24:18;2.08;;;1.50;;
80131;SDS011;69442;51.442;10.564;2023-07-30T03:26:43;2.28;;;1.50;;
80131;SDS011;69442;51.442;10.564;2023-07-30T03:29:08;2.03;;;1.50;;
80131;SDS011;69442;51.442;10.564;2023-07-30T03:31:34;2.53;;;1.77;;
80131;SDS011;69442;51.442;10.564;2023-07-30T03:34:00;2.53;;;1.70;;
80131;SDS011;69442;51.442;10.564;2023-07-30T03:36:25;3.00;;;1.42;;
80131;SDS011;69442;51.442;10.564;2023-07-30T03:38:50;2.35;;;1.63;;
80131;SDS011;69442;51.442;10.564;2023-07-30T03:41:16;3.42;;;1.65;;
80131;SDS011;69442;51.442;10.564;2023-07-30T03:43:41;1.77;;;1.42;;
80131;SDS011;69442;51.442;10.564;2023-07-30T03:46:06;2.58;;;1.50;;
80131;SDS011;69442;51.442;10.564;2023-07-30T03:48:32;2.42;;;1.50;;
80131;SDS011;69442;51.442;10.564;2023-07-30T03:50:57;3.13;;;1.90;;
80131;SDS011;69442;51.442;10.564;2023-07-30T03:53:22;2.28;;;1.70;;
80131;SDS011;69442;51.442;10.564;2023-07-30T03:55:48;2.20;;;1.50;;
80131;SDS011;69442;51.442;10.564;2023-07-30T03:58:13;2.35;;;1.80;;
80131;SDS011;69442;51.442;10.564;2023-07-30T04:00:39;2.55;;;1.67;;
80131;SDS011;69442;51.442;10.564;2023-07-30T04:03:05;2.75;;;1.52;;
80131;SDS011;69442;51.442;10.564;2023-07-30T04:05:30;3.65;;;1.90;;
80131;SDS011;69442;51.442;10.564;2023-07-30T04:07:55;3.03;;;1.80;;
80131;SDS011;69442;51.442;10.564;2023-07-30T04:10:21;2.80;;;1.90;;
80131;SDS011;69442;51.442;10.564;2023-07-30T04:12:47;2.80;;;1.80;;
80131;SDS011;69442;51.442;10.564;2023-07-30T04:15:14;3.03;;;1.50;;
80131;SDS011;69442;51.442;10.564;2023-07-30T04:17:40;3.00;;;1.85;;
80131;SDS011;69442;51.442;10.564;2023-07-30T04:20:05;3.58;;;1.90;;
80131;SDS011;69442;51.442;10.564;2023-07-30T04:22:31;4.18;;;1.75;;
80131;SDS011;69442;51.442;10.564;2023-07-30T04:24:56;3.25;;;1.80;;
80131;SDS011;69442;51.442;10.564;2023-07-30T04:27:22;4.05;;;2.00;;
80131;SDS011;69442;51.442;10.564;2023-07-30T04:29:47;4.10;;;1.88;;
80131;SDS011;69442;51.442;10.564;2023-07-30T04:32:13;3.83;;;1.80;;
80131;SDS011;69442;51.442;10.564;2023-07-30T04:34:38;2.97;;;1.90;;
80131;SDS011;69442;51.442;10.564;2023-07-30T04:37:04;2.88;;;1.90;;
80131;SDS011;69442;51.442;10.564;2023-07-30T04:39:30;2.55;;;1.73;;
80131;SDS011;69442;51.442;10.564;2023-07-30T04:41:57;2.28;;;1.50;;
80131;SDS011;69442;51.442;10.564;2023-07-30T04:44:22;1.98;;;1.10;;
80131;SDS011;69442;51.442;10.564;2023-07-30T04:46:48;2.35;;;1.80;;
80131;SDS011;69442;51.442;10.564;2023-07-30T04:49:13;2.60;;;1.88;;
80131;SDS011;69442;51.442;10.564;2023-07-30T04:51:38;3.75;;;2.10;;
80131;SDS011;69442;51.442;10.564;2023-07-30T04:54:04;5.10;;;3.03;;
80131;SDS011;69442;51.442;10.564;2023-07-30T04:56:29;3.88;;;3.17;;
80131;SDS011;69442;51.442;10.564;2023-07-30T04:58:54;6.03;;;3.15;;
80131;SDS011;69442;51.442;10.564;2023-07-30T05:01:20;4.72;;;3.38;;
80131;SDS011;69442;51.442;10.564;2023-07-30T05:03:46;6.53;;;3.72;;
80131;SDS011;69442;51.442;10.564;2023-07-30T05:06:11;5.43;;;3.28;;
80131;SDS011;69442;51.442;10.564;2023-07-30T05:08:36;6.35;;;4.15;;
80131;SDS011;69442;51.442;10.564;2023-07-30T05:11:02;4.22;;;2.08;;
80131;SDS011;69442;51.442;10.564;2023-07-30T05:13:27;4.82;;;3.28;;
80131;SDS011;69442;51.442;10.564;2023-07-30T05:15:52;7.40;;;3.45;;
80131;SDS011;69442;51.442;10.564;2023-07-30T05:18:18;5.07;;;2.92;;
80131;SDS011;69442;51.442;10.564;2023-07-30T05:20:45;9.40;;;3.80;;
80131;SDS011;69442;51.442;10.564;2023-07-30T05:23:11;4.85;;;3.30;;
80131;SDS011;69442;51.442;10.564;2023-07-30T05:25:36;2.67;;;1.70;;
80131;SDS011;69442;51.442;10.564;2023-07-30T05:28:02;6.07;;;3.78;;
80131;SDS011;69442;51.442;10.564;2023-07-30T05:30:27;4.35;;;3.40;;
80131;SDS011;69442;51.442;10.564;2023-07-30T05:32:53;3.58;;;2.47;;
80131;SDS011;69442;51.442;10.564;2023-07-30T05:35:18;5.85;;;3.45;;
80131;SDS011;69442;51.442;10.564;2023-07-30T05:37:44;7.80;;;2.60;;
80131;SDS011;69442;51.442;10.564;2023-07-30T05:40:09;4.70;;;3.17;;
80131;SDS011;69442;51.442;10.564;2023-07-30T05:42:35;4.88;;;2.65;;
80131;SDS011;69442;51.442;10.564;2023-07-30T05:45:00;4.43;;;2.65;;
80131;SDS011;69442;51.442;10.564;2023-07-30T05:47:26;5.45;;;3.25;;
80131;SDS011;69442;51.442;10.564;2023-07-30T05:49:51;4.88;;;2.70;;
80131;SDS011;69442;51.442;10.564;2023-07-30T05:52:16;5.03;;;2.63;;
80131;SDS011;69442;51.442;10.564;2023-07-30T05:54:42;4.82;;;2.53;;
80131;SDS011;69442;51.442;10.564;2023-07-30T05:57:07;3.80;;;2.05;;
80131;SDS011;69442;51.442;10.564;2023-07-30T05:59:33;4.38;;;2.25;;
80131;SDS011;69442;51.442;10.564;2023-07-30T06:02:01;6.85;;;2.60;;
80131;SDS011;69442;51.442;10.564;2023-07-30T06:04:28;5.13;;;2.60;;
80131;SDS011;69442;51.442;10.564;2023-07-30T06:06:54;4.18;;;2.40;;
80131;SDS011;69442;51.442;10.564;2023-07-30T06:09:19;4.45;;;2.10;;
80131;SDS011;69442;51.442;10.564;2023-07-30T06:11:44;6.30;;;2.33;;
80131;SDS011;69442;51.442;10.564;2023-07-30T06:14:10;6.75;;;2.22;;
80131;SDS011;69442;51.442;10.564;2023-07-30T06:16:35;4.65;;;2.45;;
80131;SDS011;69442;51.442;10.564;2023-07-30T06:19:00;5.35;;;2.70;;
80131;SDS011;69442;51.442;10.564;2023-07-30T06:21:26;5.43;;;2.33;;
80131;SDS011;69442;51.442;10.564;2023-07-30T06:23:51;4.40;;;2.40;;
80131;SDS011;69442;51.442;10.564;2023-07-30T06:26:16;3.70;;;2.00;;
80131;SDS011;69442;51.442;10.564;2023-07-30T06:28:42;5.43;;;2.38;;
80131;SDS011;69442;51.442;10.564;2023-07-30T06:31:07;4.95;;;2.55;;
80131;SDS011;69442;51.442;10.564;2023-07-30T06:33:32;3.65;;;2.25;;
80131;SDS011;69442;51.442;10.564;2023-07-30T06:35:58;5.10;;;2.28;;
80131;SDS011;69442;51.442;10.564;2023-07-30T06:38:23;5.20;;;2.10;;
80131;SDS011;69442;51.442;10.564;2023-07-30T06:40:48;3.50;;;2.03;;
80131;SDS011;69442;51.442;10.564;2023-07-30T06:43:14;2.67;;;1.60;;
80131;SDS011;69442;51.442;10.564;2023-07-30T06:45:39;3.85;;;1.90;;
80131;SDS011;69442;51.442;10.564;2023-07-30T06:48:05;4.10;;;2.45;;
80131;SDS011;69442;51.442;10.564;2023-07-30T06:50:30;3.58;;;1.98;;
80131;SDS011;69442;51.442;10.564;2023-07-30T06:52:55;4.75;;;1.90;;
80131;SDS011;69442;51.442;10.564;2023-07-30T06:55:21;4.65;;;2.00;;
80131;SDS011;69442;51.442;10.564;2023-07-30T06:57:46;3.15;;;1.70;;
80131;SDS011;69442;51.442;10.564;2023-07-30T07:00:11;4.15;;;2.10;;
80131;SDS011;69442;51.442;10.564;2023-07-30T07:02:37;2.42;;;1.30;;
80131;SDS011;69442;51.442;10.564;2023-07-30T07:05:03;3.50;;;1.77;;
80131;SDS011;69442;51.442;10.564;2023-07-30T07:07:28;4.07;;;2.28;;
80131;SDS011;69442;51.442;10.564;2023-07-30T07:09:55;2.63;;;1.90;;
80131;SDS011;69442;51.442;10.564;2023-07-30T07:12:21;3.00;;;1.90;;
80131;SDS011;69442;51.442;10.564;2023-07-30T07:14:46;3.80;;;1.90;;
80131;SDS011;69442;51.442;10.564;2023-07-30T07:17:11;4.63;;;2.10;;
80131;SDS011;69442;51.442;10.564;2023-07-30T07:19:37;2.45;;;1.33;;
80131;SDS011;69442;51.442;10.564;2023-07-30T07:22:03;3.78;;;2.08;;
80131;SDS011;69442;51.442;10.564;2023-07-30T07:24:29;2.83;;;1.90;;
80131;SDS011;69442;51.442;10.564;2023-07-30T07:26:56;3.45;;;1.67;;
80131;SDS011;69442;51.442;10.564;2023-07-30T07:29:21;3.05;;;1.88;;
80131;SDS011;69442;51.442;10.564;2023-07-30T07:31:47;3.50;;;1.98;;
80131;SDS011;69442;51.442;10.564;2023-07-30T07:34:12;4.20;;;2.17;;
80131;SDS011;69442;51.442;10.564;2023-07-30T07:36:38;2.33;;;1.50;;
80131;SDS011;69442;51.442;10.564;2023-07-30T07:39:04;3.78;;;1.92;;
80131;SDS011;69442;51.442;10.564;2023-07-30T07:41:29;4.72;;;2.00;;
80131;SDS011;69442;51.442;10.564;2023-07-30T07:43:54;3.03;;;1.52;;
80131;SDS011;69442;51.442;10.564;2023-07-30T07:46:20;3.75;;;1.35;;
80131;SDS011;69442;51.442;10.564;2023-07-30T07:48:46;2.42;;;1.40;;
80131;SDS011;69442;51.442;10.564;2023-07-30T07:51:12;2.20;;;1.40;;
80131;SDS011;69442;51.442;10.564;2023-07-30T07:53:38;0.95;;;0.82;;
80131;SDS011;69442;51.442;10.564;2023-07-30T07:56:04;9.93;;;1.98;;
80131;SDS011;69442;51.442;10.564;2023-07-30T07:58:30;2.13;;;1.40;;
80131;SDS011;69442;51.442;10.564;2023-07-30T08:00:56;2.28;;;1.15;;
80131;SDS011;69442;51.442;10.564;2023-07-30T08:03:22;2.22;;;1.35;;
80131;SDS011;69442;51.442;10.564;2023-07-30T08:05:48;3.08;;;1.45;;
80131;SDS011;69442;51.442;10.564;2023-07-30T08:08:14;2.10;;;1.40;;
80131;SDS011;69442;51.442;10.564;2023-07-30T08:10:40;2.40;;;1.38;;
80131;SDS011;69442;51.442;10.564;2023-07-30T08:13:08;1.75;;;1.33;;
80131;SDS011;69442;51.442;10.564;2023-07-30T08:15:36;2.40;;;1.13;;
80131;SDS011;69442;51.442;10.564;2023-07-30T08:18:02;1.73;;;1.30;;
80131;SDS011;69442;51.442;10.564;2023-07-30T08:20:28;1.85;;;1.25;;
80131;SDS011;69442;51.442;10.564;2023-07-30T08:22:53;2.13;;;1.40;;
80131;SDS011;69442;51.442;10.564;2023-07-30T08:25:19;1.00;;;0.90;;
80131;SDS011;69442;51.442;10.564;2023-07-30T08:27:44;3.08;;;1.40;;
80131;SDS011;69442;51.442;10.564;2023-07-30T08:30:09;2.10;;;1.48;;
80131;SDS011;69442;51.442;10.564;2023-07-30T08:32:35;1.27;;;1.00;;
80131;SDS011;69442;51.442;10.564;2023-07-30T08:35:01;2.35;;;1.50;;
80131;SDS011;69442;51.442;10.564;2023-07-30T08:37:26;2.45;;;1.30;;
80131;SDS011;69442;51.442;10.564;2023-07-30T08:39:52;2.00;;;1.15;;
80131;SDS011;69442;51.442;10.564;2023-07-30T08:42:17;2.28;;;1.30;;
80131;SDS011;69442;51.442;10.564;2023-07-30T08:44:43;3.30;;;1.70;;
80131;SDS011;69442;51.442;10.564;2023-07-30T08:47:08;2.50;;;1.40;;
80131;SDS011;69442;51.442;10.564;2023-07-30T08:49:34;3.17;;;1.30;;
80131;SDS011;69442;51.442;10.564;2023-07-30T08:51:59;2.85;;;1.23;;
80131;SDS011;69442;51.442;10.564;2023-07-30T08:54:29;3.10;;;1.50;;
80131;SDS011;69442;51.442;10.564;2023-07-30T08:56:56;2.95;;;1.40;;
80131;SDS011;69442;51.442;10.564;2023-07-30T08:59:22;2.78;;;1.50;;
80131;SDS011;69442;51.442;10.564;2023-07-30T09:01:50;2.28;;;1.00;;
80131;SDS011;69442;51.442;10.564;2023-07-30T09:04:17;3.78;;;1.50;;
80131;SDS011;69442;51.442;10.564;2023-07-30T09:06:43;2.80;;;1.50;;
80131;SDS011;69442;51.442;10.564;2023-07-30T09:09:11;3.55;;;1.33;;
80131;SDS011;69442;51.442;10.564;2023-07-30T09:11:38;3.90;;;1.30;;
80131;SDS011;69442;51.442;10.564;2023-07-30T09:14:05;3.03;;;1.55;;
80131;SDS011;69442;51.442;10.564;2023-07-30T09:16:30;3.78;;;1.42;;
80131;SDS011;69442;51.442;10.564;2023-07-30T09:18:56;2.13;;;1.63;;
80131;SDS011;69442;51.442;10.564;2023-07-30T09:21:30;2.45;;;1.60;;
80131;SDS011;69442;51.442;10.564;2023-07-30T09:24:02;3.22;;;1.67;;
80131;SDS011;69442;51.442;10.564;2023-07-30T09:26:44;3.40;;;1.92;;
80131;SDS011;69442;51.442;10.564;2023-07-30T09:29:11;2.78;;;2.00;;
80131;SDS011;69442;51.442;10.564;2023-07-30T09:31:46;2.65;;;1.77;;
80131;SDS011;69442;51.442;10.564;2023-07-30T09:34:15;4.65;;;2.25;;
80131;SDS011;69442;51.442;10.564;2023-07-30T09:36:43;3.38;;;1.75;;
80131;SDS011;69442;51.442;10.564;2023-07-30T09:39:14;2.78;;;1.80;;
80131;SDS011;69442;51.442;10.564;2023-07-30T09:41:44;2.78;;;2.15;;
80131;SDS011;69442;51.442;10.564;2023-07-30T09:44:10;3.33;;;2.00;;
80131;SDS011;69442;51.442;10.564;2023-07-30T09:46:43;3.85;;;2.45;;
80131;SDS011;69442;51.442;10.564;2023-07-30T09:49:11;3.63;;;2.15;;
80131;SDS011;69442;51.442;10.564;2023-07-30T09:51:37;4.30;;;1.90;;
80131;SDS011;69442;51.442;10.564;2023-07-30T09:54:05;3.33;;;2.10;;
80131;SDS011;69442;51.442;10.564;2023-07-30T09:56:32;4.22;;;2.67;;
80131;SDS011;69442;51.442;10.564;2023-07-30T09:58:58;3.42;;;2.28;;
80131;SDS011;69442;51.442;10.564;2023-07-30T10:01:23;2.17;;;1.80;;
80131;SDS011;69442;51.442;10.564;2023-07-30T10:03:52;3.63;;;2.22;;
80131;SDS011;69442;51.442;10.564;2023-07-30T10:06:21;4.18;;;2.55;;
80131;SDS011;69442;51.442;10.564;2023-07-30T10:08:50;3.15;;;2.60;;
80131;SDS011;69442;51.442;10.564;2023-07-30T10:11:18;4.22;;;2.30;;
80131;SDS011;69442;51.442;10.564;2023-07-30T10:13:44;2.88;;;2.47;;
80131;SDS011;69442;51.442;10.564;2023-07-30T10:16:10;3.38;;;2.67;;
80131;SDS011;69442;51.442;10.564;2023-07-30T10:18:39;2.90;;;2.60;;
80131;SDS011;69442;51.442;10.564;2023-07-30T10:21:22;4.03;;;2.40;;
80131;SDS011;69442;51.442;10.564;2023-07-30T10:24:02;3.30;;;2.72;;
80131;SDS011;69442;51.442;10.564;2023-07-30T10:26:32;3.47;;;2.60;;
80131;SDS011;69442;51.442;10.564;2023-07-30T10:29:09;3.65;;;2.78;;
80131;SDS011;69442;51.442;10.564;2023-07-30T10:31:39;3.20;;;2.70;;
80131;SDS011;69442;51.442;10.564;2023-07-30T10:34:07;3.72;;;3.00;;
80131;SDS011;69442;51.442;10.564;2023-07-30T10:36:36;4.57;;;2.63;;
80131;SDS011;69442;51.442;10.564;2023-07-30T10:39:48;4.10;;;3.15;;
80131;SDS011;69442;51.442;10.564;2023-07-30T10:41:55;3.38;;;2.90;;
80131;SDS011;69442;51.442;10.564;2023-07-30T10:44:29;3.50;;;2.80;;
80131;SDS011;69442;51.442;10.564;2023-07-30T10:46:57;3.88;;;3.40;;
80131;SDS011;69442;51.442;10.564;2023-07-30T10:49:24;4.20;;;3.10;;
80131;SDS011;69442;51.442;10.564;2023-07-30T10:51:54;3.67;;;2.90;;
80131;SDS011;69442;51.442;10.564;2023-07-30T10:54:20;3.95;;;2.63;;
80131;SDS011;69442;51.442;10.564;2023-07-30T10:56:47;4.55;;;2.97;;
80131;SDS011;69442;51.442;10.564;2023-07-30T10:59:13;5.32;;;3.63;;
80131;SDS011;69442;51.442;10.564;2023-07-30T11:01:40;4.57;;;3.40;;
80131;SDS011;69442;51.442;10.564;2023-07-30T11:04:11;5.18;;;3.80;;
80131;SDS011;69442;51.442;10.564;2023-07-30T11:06:44;4.68;;;3.42;;
80131;SDS011;69442;51.442;10.564;2023-07-30T11:09:24;6.35;;;4.13;;
80131;SDS011;69442;51.442;10.564;2023-07-30T11:11:51;4.70;;;4.18;;
80131;SDS011;69442;51.442;10.564;2023-07-30T11:14:18;5.30;;;3.67;;
80131;SDS011;69442;51.442;10.564;2023-07-30T11:16:48;4.57;;;4.15;;
80131;SDS011;69442;51.442;10.564;2023-07-30T11:19:15;5.22;;;4.10;;
80131;SDS011;69442;51.442;10.564;2023-07-30T11:21:44;5.07;;;4.03;;
80131;SDS011;69442;51.442;10.564;2023-07-30T11:24:10;5.17;;;4.40;;
80131;SDS011;69442;51.442;10.564;2023-07-30T11:26:36;7.05;;;4.15;;
80131;SDS011;69442;51.442;10.564;2023-07-30T11:29:09;4.85;;;3.63;;
80131;SDS011;69442;51.442;10.564;2023-07-30T11:31:44;4.90;;;3.70;;
80131;SDS011;69442;51.442;10.564;2023-07-30T11:34:10;3.80;;;3.20;;
80131;SDS011;69442;51.442;10.564;2023-07-30T11:36:37;4.85;;;3.42;;
80131;SDS011;69442;51.442;10.564;2023-07-30T11:39:03;4.07;;;3.17;;
80131;SDS011;69442;51.442;10.564;2023-07-30T11:41:29;3.90;;;3.20;;
80131;SDS011;69442;51.442;10.564;2023-07-30T11:43:55;4.63;;;2.85;;
80131;SDS011;69442;51.442;10.564;2023-07-30T11:46:21;3.22;;;2.67;;
80131;SDS011;69442;51.442;10.564;2023-07-30T11:48:48;3.58;;;2.75;;
80131;SDS011;69442;51.442;10.564;2023-07-30T11:51:33;4.13;;;2.63;;
80131;SDS011;69442;51.442;10.564;2023-07-30T11:53:59;3.63;;;2.30;;
80131;SDS011;69442;51.442;10.564;2023-07-30T11:56:26;3.85;;;2.72;;
80131;SDS011;69442;51.442;10.564;2023-07-30T11:59:15;3.95;;;2.80;;
80131;SDS011;69442;51.442;10.564;2023-07-30T12:01:39;3.83;;;2.58;;
80131;SDS011;69442;51.442;10.564;2023-07-30T12:04:07;3.67;;;2.70;;
80131;SDS011;69442;51.442;10.564;2023-07-30T12:06:43;4.15;;;2.72;;
80131;SDS011;69442;51.442;10.564;2023-07-30T12:09:12;3.78;;;2.70;;
80131;SDS011;69442;51.442;10.564;2023-07-30T12:11:45;4.10;;;2.30;;
80131;SDS011;69442;51.442;10.564;2023-07-30T12:14:11;3.17;;;2.60;;
80131;SDS011;69442;51.442;10.564;2023-07-30T12:16:36;3.00;;;2.63;;
80131;SDS011;69442;51.442;10.564;2023-07-30T12:19:02;3.47;;;2.50;;
80131;SDS011;69442;51.442;10.564;2023-07-30T12:21:27;3.75;;;2.55;;
80131;SDS011;69442;51.442;10.564;2023-07-30T12:23:53;4.85;;;2.90;;
80131;SDS011;69442;51.442;10.564;2023-07-30T12:26:18;3.70;;;2.20;;
80131;SDS011;69442;51.442;10.564;2023-07-30T12:28:44;3.33;;;2.20;;
80131;SDS011;69442;51.442;10.564;2023-07-30T12:31:09;1.85;;;1.50;;
80131;SDS011;69442;51.442;10.564;2023-07-30T12:33:34;2.70;;;1.30;;
80131;SDS011;69442;51.442;10.564;2023-07-30T12:36:00;2.50;;;1.33;;
80131;SDS011;69442;51.442;10.564;2023-07-30T12:38:25;1.75;;;1.35;;
80131;SDS011;69442;51.442;10.564;2023-07-30T12:40:51;1.70;;;1.15;;
80131;SDS011;69442;51.442;10.564;2023-07-30T12:43:16;2.50;;;1.33;;
80131;SDS011;69442;51.442;10.564;2023-07-30T12:45:44;1.63;;;0.90;;
80131;SDS011;69442;51.442;10.564;2023-07-30T12:48:09;2.42;;;1.45;;
80131;SDS011;69442;51.442;10.564;2023-07-30T12:50:34;2.58;;;1.25;;
80131;SDS011;69442;51.442;10.564;2023-07-30T12:53:00;3.00;;;1.42;;
80131;SDS011;69442;51.442;10.564;2023-07-30T12:55:25;1.90;;;1.27;;
80131;SDS011;69442;51.442;10.564;2023-07-30T12:57:51;2.47;;;1.33;;
80131;SDS011;69442;51.442;10.564;2023-07-30T13:00:16;2.17;;;1.30;;
80131;SDS011;69442;51.442;10.564;2023-07-30T13:02:42;2.92;;;1.55;;
80131;SDS011;69442;51.442;10.564;2023-07-30T13:05:08;3.13;;;1.70;;
80131;SDS011;69442;51.442;10.564;2023-07-30T13:07:33;3.28;;;1.65;;
80131;SDS011;69442;51.442;10.564;2023-07-30T13:10:08;3.75;;;1.60;;
80131;SDS011;69442;51.442;10.564;2023-07-30T13:12:34;2.15;;;1.60;;
80131;SDS011;69442;51.442;10.564;2023-07-30T13:15:00;2.13;;;1.42;;
80131;SDS011;69442;51.442;10.564;2023-07-30T13:17:26;1.80;;;1.52;;
80131;SDS011;69442;51.442;10.564;2023-07-30T13:19:52;3.25;;;1.52;;
80131;SDS011;69442;51.442;10.564;2023-07-30T13:22:17;3.10;;;1.88;;
80131;SDS011;69442;51.442;10.564;2023-07-30T13:24:43;3.72;;;1.60;;
80131;SDS011;69442;51.442;10.564;2023-07-30T13:27:08;2.25;;;1.40;;
80131;SDS011;69442;51.442;10.564;2023-07-30T13:29:33;2.40;;;1.25;;
80131;SDS011;69442;51.442;10.564;2023-07-30T13:31:59;3.75;;;1.67;;
80131;SDS011;69442;51.442;10.564;2023-07-30T13:34:24;3.70;;;1.70;;
80131;SDS011;69442;51.442;10.564;2023-07-30T13:36:50;2.50;;;1.50;;
80131;SDS011;69442;51.442;10.564;2023-07-30T13:39:15;2.83;;;1.40;;
80131;SDS011;69442;51.442;10.564;2023-07-30T13:41:40;2.70;;;1.45;;
80131;SDS011;69442;51.442;10.564;2023-07-30T13:44:06;2.92;;;2.00;;
80131;SDS011;69442;51.442;10.564;2023-07-30T13:46:31;2.67;;;1.52;;
80131;SDS011;69442;51.442;10.564;2023-07-30T13:48:57;4.18;;;1.52;;
80131;SDS011;69442;51.442;10.564;2023-07-30T13:51:22;3.22;;;1.60;;
80131;SDS011;69442;51.442;10.564;2023-07-30T13:53:47;2.53;;;1.73;;
80131;SDS011;69442;51.442;10.564;2023-07-30T13:56:13;3.60;;;1.50;;
80131;SDS011;69442;51.442;10.564;2023-07-30T13:58:39;3.70;;;1.70;;
80131;SDS011;69442;51.442;10.564;2023-07-30T14:01:04;3.60;;;1.70;;
80131;SDS011;69442;51.442;10.564;2023-07-30T14:03:31;2.13;;;1.65;;
80131;SDS011;69442;51.442;10.564;2023-07-30T14:05:56;5.35;;;1.88;;
80131;SDS011;69442;51.442;10.564;2023-07-30T14:08:22;2.90;;;1.75;;
80131;SDS011;69442;51.442;10.564;2023-07-30T14:10:47;4.65;;;1.67;;
80131;SDS011;69442;51.442;10.564;2023-07-30T14:13:13;3.55;;;1.70;;
80131;SDS011;69442;51.442;10.564;2023-07-30T14:15:38;3.00;;;1.77;;
80131;SDS011;69442;51.442;10.564;2023-07-30T14:18:03;3.58;;;1.70;;
80131;SDS011;69442;51.442;10.564;2023-07-30T14:20:29;3.40;;;1.90;;
80131;SDS011;69442;51.442;10.564;2023-07-30T14:22:54;3.90;;;1.52;;
80131;SDS011;69442;51.442;10.564;2023-07-30T14:25:19;3.75;;;1.50;;
80131;SDS011;69442;51.442;10.564;2023-07-30T14:27:45;5.07;;;3.40;;